createdAt,value
2023-01-07T00:03:28.862Z,83.52
2023-01-07T00:07:35.742Z,83.34
2023-01-07T00:11:43.382Z,83.30
2023-01-07T00:15:50.188Z,83.07
2023-01-07T00:19:56.989Z,82.99
2023-01-07T00:24:05.934Z,83.18
2023-01-07T00:28:12.724Z,83.21
2023-01-07T00:32:19.536Z,83.17
2023-01-07T00:36:28.670Z,83.16
2023-01-07T00:40:36.091Z,83.16
2023-01-07T00:44:42.908Z,82.99
2023-01-07T00:48:49.686Z,83.24
2023-01-07T00:52:57.332Z,82.77
2023-01-07T00:57:04.123Z,82.90
2023-01-07T01:01:12.485Z,83.18
2023-01-07T01:05:20.876Z,82.94
2023-01-07T01:09:28.008Z,83.23
2023-01-07T01:13:35.285Z,83.08
2023-01-07T01:17:42.803Z,83.11
2023-01-07T01:21:49.620Z,83.10
2023-01-07T01:26:05.423Z,83.19
2023-01-07T01:30:13.726Z,83.00
2023-01-07T01:34:20.893Z,83.09
2023-01-07T01:38:27.699Z,82.88
2023-01-07T01:42:34.755Z,82.87
2023-01-07T01:46:44.752Z,83.06
2023-01-07T01:50:52.894Z,83.05
2023-01-07T01:55:05.041Z,83.07
2023-01-07T01:59:17.688Z,83.23
2023-01-07T02:03:28.463Z,83.06
2023-01-07T02:07:35.382Z,83.10
2023-01-07T02:11:52.816Z,83.10
2023-01-07T02:16:06.414Z,83.09
2023-01-07T02:20:43.085Z,83.09
2023-01-07T02:25:04.825Z,83.22
2023-01-07T02:29:47.712Z,83.28
2023-01-07T02:34:01.963Z,83.38
2023-01-07T02:38:18.411Z,83.33
2023-01-07T02:42:36.222Z,83.35
2023-01-07T02:46:48.487Z,83.24
2023-01-07T02:50:53.708Z,83.48
2023-01-07T02:55:07.393Z,83.41
2023-01-07T02:59:40.532Z,83.25
2023-01-07T03:04:03.759Z,83.43
2023-01-07T03:08:26.941Z,83.50
2023-01-07T03:12:39.225Z,83.66
2023-01-07T03:16:46.531Z,83.87
2023-01-07T03:20:58.486Z,83.74
2023-01-07T03:25:07.888Z,83.78
2023-01-07T03:29:16.605Z,83.97
2023-01-07T03:33:27.745Z,83.97
2023-01-07T03:37:36.316Z,83.86
2023-01-07T03:41:57.004Z,83.79
2023-01-07T03:46:04.040Z,83.65
2023-01-07T03:50:11.871Z,83.61
2023-01-07T03:54:18.708Z,83.73
2023-01-07T03:58:25.539Z,83.82
2023-01-07T04:02:32.376Z,83.93
2023-01-07T04:06:39.373Z,83.94
2023-01-07T04:10:46.469Z,83.68
2023-01-07T04:14:53.282Z,83.87
2023-01-07T04:19:00.310Z,83.72
2023-01-07T04:23:07.151Z,83.63
2023-01-07T04:27:13.943Z,83.59
2023-01-07T04:31:20.733Z,83.77
2023-01-07T04:35:27.786Z,83.73
2023-01-07T04:39:34.585Z,83.64
2023-01-07T04:43:41.410Z,83.68
2023-01-07T04:47:48.249Z,83.77
2023-01-07T04:51:55.078Z,83.67
2023-01-07T04:56:01.875Z,83.71
2023-01-07T05:00:11.008Z,83.43
2023-01-07T05:04:18.144Z,83.60
2023-01-07T05:08:25.075Z,83.77
2023-01-07T05:12:34.354Z,83.83
2023-01-07T05:16:41.168Z,83.67
2023-01-07T05:20:48.732Z,83.61
2023-01-07T05:24:55.568Z,83.71
2023-01-07T05:29:02.394Z,83.54
2023-01-07T05:33:09.475Z,83.60
2023-01-07T05:37:16.283Z,83.43
2023-01-07T05:41:23.106Z,83.37
2023-01-07T05:45:29.925Z,83.49
2023-01-07T05:49:36.765Z,83.64
2023-01-07T05:53:43.554Z,83.52
2023-01-07T05:57:50.333Z,83.70
2023-01-07T06:01:57.151Z,83.72
2023-01-07T06:06:07.384Z,83.81
2023-01-07T06:10:14.373Z,83.92
2023-01-07T06:14:21.198Z,83.76
2023-01-07T06:18:28.188Z,83.89
2023-01-07T06:22:34.977Z,84.11
2023-01-07T06:26:42.042Z,84.02
2023-01-07T06:30:49.464Z,83.82
2023-01-07T06:34:56.323Z,84.05
2023-01-07T06:39:03.110Z,83.91
2023-01-07T06:43:09.961Z,83.89
2023-01-07T06:47:16.799Z,84.09
2023-01-07T06:51:23.598Z,84.17
2023-01-07T06:55:30.446Z,84.21
2023-01-07T06:59:37.272Z,84.13
2023-01-07T07:03:44.129Z,83.90
2023-01-07T07:07:50.960Z,83.84
2023-01-07T07:11:57.754Z,83.75
2023-01-07T07:16:04.798Z,83.68
2023-01-07T07:20:13.013Z,83.71
2023-01-07T07:24:20.018Z,83.77
2023-01-07T07:28:26.839Z,83.82
2023-01-07T07:32:33.688Z,83.61
2023-01-07T07:36:40.504Z,83.54
2023-01-07T07:41:03.119Z,83.60
2023-01-07T07:49:35.049Z,83.56
2023-01-07T07:53:41.844Z,83.44
2023-01-07T07:57:58.420Z,83.69
2023-01-07T08:02:05.455Z,83.84
2023-01-07T08:06:58.309Z,83.79
2023-01-07T08:11:05.919Z,83.60
2023-01-07T08:15:20.626Z,83.64
2023-01-07T08:19:30.968Z,83.87
2023-01-07T08:23:51.791Z,83.67
2023-01-07T08:27:59.651Z,83.62
2023-01-07T08:32:14.061Z,83.44
2023-01-07T08:36:23.403Z,83.71
2023-01-07T08:40:43.607Z,83.58
2023-01-07T08:44:50.438Z,83.86
2023-01-07T08:48:57.251Z,83.47
2023-01-07T08:53:11.732Z,83.55
2023-01-07T08:57:56.451Z,83.54
2023-01-07T09:02:14.515Z,83.10
2023-01-07T09:06:50.003Z,83.00
2023-01-07T09:11:08.681Z,82.94
2023-01-07T09:15:15.769Z,82.53
2023-01-07T09:19:22.876Z,82.48
2023-01-07T09:23:33.305Z,82.22
2023-01-07T09:27:40.452Z,81.99
2023-01-07T09:31:47.337Z,81.81
2023-01-07T09:35:59.075Z,81.34
2023-01-07T09:40:04.771Z,81.16
2023-01-07T09:44:28.521Z,81.50
2023-01-07T09:48:39.950Z,80.99
2023-01-07T09:53:08.742Z,80.93
2023-01-07T09:57:27.135Z,80.64
2023-01-07T10:01:48.945Z,80.40
2023-01-07T10:11:01.434Z,79.35
2023-01-07T10:15:22.981Z,79.82
2023-01-07T10:19:49.973Z,79.36
2023-01-07T10:24:22.003Z,79.38
2023-01-07T10:29:11.641Z,79.37
2023-01-07T10:33:25.458Z,79.14
2023-01-07T10:37:47.946Z,79.05
2023-01-07T10:42:02.636Z,79.06
2023-01-07T10:47:07.209Z,79.18
2023-01-07T10:51:37.740Z,78.63
2023-01-07T10:56:14.030Z,78.55
2023-01-07T11:00:25.935Z,78.45
2023-01-07T11:04:32.873Z,78.02
2023-01-07T11:08:42.768Z,78.31
2023-01-07T11:12:57.436Z,78.24
2023-01-07T11:17:17.900Z,78.10
2023-01-07T11:21:51.810Z,77.95
2023-01-07T11:26:34.262Z,77.47
2023-01-07T11:30:56.655Z,77.55
2023-01-07T11:39:48.115Z,77.22
2023-01-07T11:43:55.630Z,76.97
2023-01-07T11:48:09.206Z,77.62
2023-01-07T11:52:22.935Z,77.50
2023-01-07T11:56:45.146Z,77.63
2023-01-07T12:01:32.940Z,77.82
2023-01-07T12:05:46.864Z,77.81
2023-01-07T12:09:53.726Z,78.21
2023-01-07T12:14:19.300Z,77.89
2023-01-07T12:18:49.533Z,77.81
2023-01-07T12:23:06.598Z,77.79
2023-01-07T12:27:26.045Z,78.32
2023-01-07T12:31:44.608Z,78.51
2023-01-07T12:36:27.899Z,78.62
2023-01-07T12:40:58.717Z,77.94
2023-01-07T12:45:19.292Z,78.00
2023-01-07T12:49:40.032Z,78.28
2023-01-07T12:59:00.881Z,78.44
2023-01-07T13:03:24.752Z,78.40
2023-01-07T13:07:47.210Z,78.80
2023-01-07T13:12:42.559Z,78.76
2023-01-07T13:16:49.931Z,78.37
2023-01-07T13:25:41.345Z,78.07
2023-01-07T13:30:13.104Z,77.08
2023-01-07T13:39:29.498Z,77.00
2023-01-07T13:44:01.769Z,76.92
2023-01-07T13:48:22.244Z,76.89
2023-01-07T13:52:44.165Z,77.21
2023-01-07T13:56:51.784Z,77.14
2023-01-07T14:01:07.311Z,77.55
2023-01-07T14:05:29.157Z,77.64
2023-01-07T14:09:42.357Z,78.34
2023-01-07T14:13:57.338Z,78.64
2023-01-07T14:18:20.989Z,78.88
2023-01-07T14:22:36.770Z,79.06
2023-01-07T14:26:51.108Z,79.19
2023-01-07T14:30:58.367Z,79.45
2023-01-07T14:35:08.510Z,79.53
2023-01-07T14:39:32.617Z,79.42
2023-01-07T14:44:26.090Z,79.06
2023-01-07T14:48:38.090Z,79.27
2023-01-07T14:53:08.782Z,79.24
2023-01-07T14:57:26.677Z,79.38
2023-01-07T15:01:46.091Z,79.72
2023-01-07T15:06:26.618Z,79.80
2023-01-07T15:10:51.881Z,79.79
2023-01-07T15:15:26.917Z,79.76
2023-01-07T15:19:37.399Z,80.32
2023-01-07T15:23:53.185Z,80.45
2023-01-07T15:28:07.824Z,80.04
2023-01-07T15:32:26.075Z,80.32
2023-01-07T15:36:33.737Z,80.14
2023-01-07T15:40:47.275Z,80.20
2023-01-07T15:44:57.110Z,80.27
2023-01-07T15:49:25.307Z,80.31
2023-01-07T15:53:32.548Z,80.21
2023-01-07T15:57:39.450Z,80.30
2023-01-07T16:01:51.372Z,80.18
2023-01-07T16:05:56.706Z,80.70
2023-01-07T16:10:03.871Z,80.89
2023-01-07T16:14:18.219Z,80.92
2023-01-07T16:18:25.070Z,81.11
2023-01-07T16:22:33.587Z,81.10
2023-01-07T16:26:44.683Z,80.94
2023-01-07T16:30:53.951Z,81.06
2023-01-07T16:35:10.741Z,81.19
2023-01-07T16:39:26.952Z,81.14
2023-01-07T16:43:45.924Z,81.15
2023-01-07T16:48:04.990Z,81.35
2023-01-07T16:52:17.170Z,81.52
2023-01-07T16:56:28.459Z,81.94
2023-01-07T17:00:35.500Z,82.12
2023-01-07T17:04:42.545Z,82.24
2023-01-07T17:08:55.548Z,82.44
2023-01-07T17:13:07.632Z,82.63
2023-01-07T17:17:26.275Z,82.87
2023-01-07T17:21:49.913Z,83.18
2023-01-07T17:26:00.057Z,83.43
2023-01-07T17:30:09.244Z,83.55
2023-01-07T17:34:17.419Z,83.92
2023-01-07T17:38:24.361Z,83.96
2023-01-07T17:42:51.611Z,84.15
2023-01-07T17:46:58.444Z,84.16
2023-01-07T17:51:07.200Z,83.83
2023-01-07T17:55:22.524Z,83.79
2023-01-07T17:59:31.609Z,83.68
2023-01-07T18:03:38.709Z,83.76
2023-01-07T18:07:45.683Z,83.58
2023-01-07T18:12:09.967Z,83.44
2023-01-07T18:16:17.188Z,83.52
2023-01-07T18:20:25.636Z,83.61
2023-01-07T18:24:32.643Z,83.78
2023-01-07T18:28:39.587Z,83.60
2023-01-07T18:32:46.411Z,83.06
2023-01-07T18:36:54.460Z,83.20
2023-01-07T18:41:01.313Z,83.21
2023-01-07T18:45:13.576Z,83.20
2023-01-07T18:49:20.625Z,83.18
2023-01-07T18:53:27.880Z,83.40
2023-01-07T18:57:34.792Z,83.58
2023-01-07T19:01:45.378Z,83.37
2023-01-07T19:05:52.238Z,83.71
2023-01-07T19:09:59.056Z,83.58
2023-01-07T19:14:06.599Z,83.81
2023-01-07T19:18:13.387Z,84.06
2023-01-07T19:22:21.277Z,83.90
2023-01-07T19:26:28.382Z,83.56
2023-01-07T19:30:35.990Z,83.53
2023-01-07T19:34:45.657Z,83.43
2023-01-07T19:38:52.469Z,83.39
2023-01-07T19:42:59.314Z,83.67
2023-01-07T19:47:06.263Z,83.69
2023-01-07T19:51:13.275Z,83.75
2023-01-07T19:55:22.333Z,83.60
2023-01-07T19:59:31.305Z,83.47
2023-01-07T20:03:42.197Z,83.72
2023-01-07T20:07:49.034Z,83.77
2023-01-07T20:11:55.874Z,83.64
2023-01-07T20:16:08.654Z,83.84
2023-01-07T20:20:15.937Z,83.79
2023-01-07T20:24:22.758Z,83.59
2023-01-07T20:28:29.814Z,83.58
2023-01-07T20:32:36.731Z,83.79
2023-01-07T20:36:43.539Z,84.03
2023-01-07T20:40:50.334Z,83.94
2023-01-07T20:44:57.585Z,83.95
2023-01-07T20:49:06.206Z,83.94
2023-01-07T20:53:13.628Z,84.11
2023-01-07T20:57:20.609Z,84.10
2023-01-07T21:01:27.764Z,84.24
2023-01-07T21:05:34.704Z,83.82
2023-01-07T21:09:43.387Z,84.04
2023-01-07T21:13:51.159Z,83.98
2023-01-07T21:17:58.332Z,84.22
2023-01-07T21:22:05.147Z,84.16
2023-01-07T21:26:13.463Z,83.97
2023-01-07T21:30:20.461Z,84.24
2023-01-07T21:34:27.301Z,84.08
2023-01-07T21:38:34.299Z,84.15
2023-01-07T21:42:41.155Z,83.89
2023-01-07T21:46:47.996Z,83.93
2023-01-07T21:50:54.866Z,83.89
2023-01-07T21:55:01.795Z,84.13
2023-01-07T21:59:10.084Z,84.57
2023-01-07T22:03:16.880Z,84.48
2023-01-07T22:07:23.924Z,84.28
2023-01-07T22:11:30.800Z,84.34
2023-01-07T22:15:40.489Z,84.52
2023-01-07T22:19:47.687Z,84.35
2023-01-07T22:23:54.590Z,84.18
2023-01-07T22:28:03.605Z,84.40
2023-01-07T22:32:10.426Z,84.33
2023-01-07T22:37:12.906Z,84.38
2023-01-07T22:41:20.199Z,84.49
2023-01-07T22:45:35.756Z,84.50
2023-01-07T22:49:43.409Z,84.31
2023-01-07T22:53:52.547Z,84.61
2023-01-07T22:58:00.146Z,84.97
2023-01-07T23:02:07.653Z,84.92
2023-01-07T23:06:16.681Z,84.65
2023-01-07T23:10:23.666Z,84.96
2023-01-07T23:14:32.635Z,85.12
2023-01-07T23:18:39.485Z,84.94
2023-01-07T23:22:46.484Z,85.03
2023-01-07T23:26:55.414Z,84.84
2023-01-07T23:31:04.514Z,85.14
2023-01-07T23:35:12.262Z,85.30
2023-01-07T23:39:19.248Z,84.82
2023-01-07T23:43:26.090Z,85.18
2023-01-07T23:47:32.848Z,84.97
2023-01-07T23:51:40.938Z,85.00
2023-01-07T23:55:54.508Z,85.30
